createdAt,value
2023-01-19T00:01:30.487Z,107.10
2023-01-19T00:03:57.491Z,109.70
2023-01-19T00:06:24.355Z,139.70
2023-01-19T00:08:51.407Z,127.30
2023-01-19T00:11:18.887Z,131.60
2023-01-19T00:13:53.973Z,134.50
2023-01-19T00:16:23.451Z,129.10
2023-01-19T00:18:52.591Z,134.60
2023-01-19T00:21:21.926Z,142.20
2023-01-19T00:23:51.377Z,129.10
2023-01-19T00:26:19.282Z,140.40
2023-01-19T00:28:46.291Z,138.90
2023-01-19T00:31:13.416Z,150.30
2023-01-19T00:33:40.482Z,149.30
2023-01-19T00:36:08.363Z,146.30
2023-01-19T00:38:35.289Z,115.60
2023-01-19T00:41:02.369Z,83.10
2023-01-19T00:43:29.403Z,47.60
2023-01-19T00:46:02.513Z,65.00
2023-01-19T00:48:31.903Z,75.60
2023-01-19T00:51:05.656Z,46.10
2023-01-19T00:53:37.475Z,61.10
2023-01-19T00:56:12.582Z,50.80
2023-01-19T00:58:39.613Z,49.10
2023-01-19T01:01:06.722Z,46.30
2023-01-19T01:03:33.586Z,48.40
2023-01-19T01:06:01.174Z,69.50
2023-01-19T01:08:28.099Z,79.20
2023-01-19T01:10:55.846Z,56.90
2023-01-19T01:13:26.194Z,39.80
2023-01-19T01:15:55.968Z,35.40
2023-01-19T01:18:23.605Z,42.70
2023-01-19T01:20:50.594Z,47.60
2023-01-19T01:23:23.124Z,32.90
2023-01-19T01:25:50.415Z,33.40
2023-01-19T01:28:17.342Z,45.90
2023-01-19T01:30:44.890Z,38.90
2023-01-19T01:33:12.370Z,48.50
2023-01-19T01:35:40.049Z,44.90
2023-01-19T01:38:06.964Z,41.90
2023-01-19T01:40:33.797Z,42.60
2023-01-19T01:43:01.000Z,44.80
2023-01-19T01:45:40.264Z,34.60
2023-01-19T01:48:12.850Z,34.40
2023-01-19T01:51:08.673Z,39.70
2023-01-19T01:53:37.751Z,37.10
2023-01-19T01:56:10.054Z,38.40
2023-01-19T01:58:39.127Z,41.20
2023-01-19T02:01:26.659Z,39.70
2023-01-19T02:03:57.794Z,38.70
2023-01-19T02:06:26.177Z,34.00
2023-01-19T02:09:23.748Z,36.00
2023-01-19T02:12:10.164Z,46.40
2023-01-19T02:14:40.149Z,52.30
2023-01-19T02:17:08.118Z,54.20
2023-01-19T02:19:42.031Z,55.80
2023-01-19T02:22:27.665Z,63.60
2023-01-19T02:24:54.865Z,72.10
2023-01-19T02:27:21.830Z,61.50
2023-01-19T02:29:49.065Z,66.00
2023-01-19T02:32:15.980Z,68.20
2023-01-19T02:34:43.026Z,56.60
2023-01-19T02:37:17.661Z,54.30
2023-01-19T02:40:00.953Z,57.10
2023-01-19T02:42:33.066Z,62.30
2023-01-19T02:45:00.388Z,59.50
2023-01-19T02:47:27.348Z,55.30
2023-01-19T02:49:58.592Z,59.80
2023-01-19T02:52:26.548Z,59.30
2023-01-19T02:55:13.452Z,60.80
2023-01-19T02:57:59.029Z,67.90
2023-01-19T03:01:00.006Z,72.60
2023-01-19T03:03:48.413Z,73.50
2023-01-19T03:06:46.706Z,76.50
2023-01-19T03:09:35.585Z,76.30
2023-01-19T03:12:15.702Z,73.40
2023-01-19T03:14:48.374Z,77.30
2023-01-19T03:17:19.275Z,83.30
2023-01-19T03:19:49.919Z,68.80
2023-01-19T03:22:27.414Z,61.50
2023-01-19T03:24:59.628Z,59.70
2023-01-19T03:27:41.696Z,64.70
2023-01-19T03:30:13.389Z,64.20
2023-01-19T03:32:50.330Z,67.40
2023-01-19T03:35:20.065Z,65.40
2023-01-19T03:37:50.943Z,83.90
2023-01-19T03:40:18.466Z,79.10
2023-01-19T03:42:46.359Z,83.10
2023-01-19T03:45:14.651Z,82.40
2023-01-19T03:47:42.352Z,69.80
2023-01-19T03:50:21.081Z,63.20
2023-01-19T03:53:18.545Z,62.90
2023-01-19T03:55:48.307Z,55.00
2023-01-19T03:58:15.240Z,60.90
2023-01-19T04:00:42.552Z,58.80
2023-01-19T04:03:17.065Z,57.10
2023-01-19T04:05:45.082Z,56.40
2023-01-19T04:08:12.994Z,55.30
2023-01-19T04:10:40.348Z,57.70
2023-01-19T04:13:07.385Z,61.00
2023-01-19T04:15:34.521Z,73.30
2023-01-19T04:18:02.085Z,70.00
2023-01-19T04:20:29.245Z,65.10
2023-01-19T04:23:01.103Z,71.00
2023-01-19T04:25:29.128Z,72.70
2023-01-19T04:27:58.648Z,94.60
2023-01-19T04:30:27.599Z,74.30
2023-01-19T04:32:56.007Z,78.00
2023-01-19T04:35:24.201Z,63.00
2023-01-19T04:37:51.465Z,69.40
2023-01-19T04:40:18.647Z,73.80
2023-01-19T04:42:46.666Z,76.10
2023-01-19T04:45:14.492Z,71.00
2023-01-19T04:47:42.940Z,77.80
2023-01-19T04:50:11.758Z,60.30
2023-01-19T04:52:39.146Z,66.60
2023-01-19T04:55:07.704Z,84.60
2023-01-19T04:57:34.547Z,79.60
2023-01-19T05:00:01.477Z,74.30
2023-01-19T05:02:28.813Z,70.30
2023-01-19T05:04:56.024Z,66.60
2023-01-19T05:07:22.946Z,64.10
2023-01-19T05:09:50.106Z,65.60
2023-01-19T05:12:17.127Z,64.90
2023-01-19T05:14:44.306Z,53.10
2023-01-19T05:17:11.947Z,53.00
2023-01-19T05:19:39.426Z,53.80
2023-01-19T05:22:06.924Z,62.50
2023-01-19T05:24:34.225Z,72.70
2023-01-19T05:27:01.589Z,67.40
2023-01-19T05:29:28.495Z,72.10
2023-01-19T05:31:55.485Z,56.10
2023-01-19T05:34:22.712Z,71.20
2023-01-19T05:36:49.534Z,82.00
2023-01-19T05:39:16.586Z,81.60
2023-01-19T05:41:45.885Z,86.40
2023-01-19T05:44:13.527Z,84.30
2023-01-19T05:46:40.767Z,76.40
2023-01-19T05:49:08.241Z,76.30
2023-01-19T05:51:38.360Z,73.80
2023-01-19T05:54:06.539Z,67.10
2023-01-19T05:56:33.665Z,53.50
2023-01-19T05:59:01.254Z,55.20
2023-01-19T06:01:28.757Z,54.40
2023-01-19T06:03:55.836Z,53.60
2023-01-19T06:06:22.869Z,54.80
2023-01-19T06:08:49.819Z,54.90
2023-01-19T06:11:17.191Z,63.20
2023-01-19T06:13:44.149Z,67.00
2023-01-19T06:16:12.308Z,82.40
2023-01-19T06:18:39.346Z,77.40
2023-01-19T06:21:08.649Z,75.90
2023-01-19T06:23:36.191Z,75.30
2023-01-19T06:26:03.349Z,76.80
2023-01-19T06:28:30.270Z,82.10
2023-01-19T06:30:57.693Z,77.50
2023-01-19T06:33:26.007Z,64.90
2023-01-19T06:35:53.121Z,56.30
2023-01-19T06:38:20.509Z,58.40
2023-01-19T06:40:58.904Z,55.80
2023-01-19T06:43:27.129Z,58.00
2023-01-19T06:45:55.093Z,53.50
2023-01-19T06:48:22.947Z,58.20
2023-01-19T06:50:50.166Z,62.60
2023-01-19T06:53:18.028Z,72.20
2023-01-19T06:55:45.309Z,66.50
2023-01-19T06:58:12.947Z,68.10
2023-01-19T07:00:40.147Z,64.10
2023-01-19T07:03:08.103Z,61.30
2023-01-19T07:05:36.675Z,62.00
2023-01-19T07:08:04.313Z,61.00
2023-01-19T07:11:24.816Z,59.50
2023-01-19T07:13:19.145Z,55.80
2023-01-19T07:15:46.062Z,52.40
2023-01-19T07:18:13.151Z,59.30
2023-01-19T07:20:40.098Z,49.60
2023-01-19T07:23:07.076Z,50.70
2023-01-19T07:25:33.892Z,49.30
2023-01-19T07:28:01.753Z,46.10
2023-01-19T07:30:29.573Z,48.70
2023-01-19T07:32:58.785Z,47.60
2023-01-19T07:35:26.712Z,52.20
2023-01-19T07:37:53.712Z,60.70
2023-01-19T07:40:21.542Z,54.10
2023-01-19T07:42:50.801Z,66.10
2023-01-19T07:45:20.173Z,49.50
2023-01-19T07:47:52.268Z,58.70
2023-01-19T07:50:24.922Z,61.90
2023-01-19T07:52:53.951Z,57.60
2023-01-19T07:55:21.483Z,30.30
2023-01-19T07:57:51.222Z,59.90
2023-01-19T08:00:25.078Z,58.70
2023-01-19T08:02:54.039Z,42.10
2023-01-19T08:05:21.842Z,36.60
2023-01-19T08:07:48.920Z,52.10
2023-01-19T08:10:18.046Z,56.00
2023-01-19T08:12:44.992Z,30.50
2023-01-19T08:15:12.580Z,55.70
2023-01-19T08:17:39.520Z,64.40
2023-01-19T08:20:09.634Z,58.00
2023-01-19T08:22:36.677Z,63.10
2023-01-19T08:25:04.522Z,58.40
2023-01-19T08:27:31.829Z,23.10
2023-01-19T08:29:59.520Z,31.90
2023-01-19T08:32:26.623Z,59.60
2023-01-19T08:34:53.869Z,58.60
2023-01-19T08:37:20.689Z,55.10
2023-01-19T08:39:47.877Z,47.90
2023-01-19T08:42:14.980Z,52.80
2023-01-19T08:44:57.244Z,54.40
2023-01-19T08:47:25.306Z,50.90
2023-01-19T08:49:52.309Z,36.70
2023-01-19T08:52:19.336Z,35.60
2023-01-19T08:54:46.317Z,50.40
2023-01-19T08:57:13.469Z,51.80
2023-01-19T08:59:40.579Z,51.90
2023-01-19T09:02:07.645Z,33.20
2023-01-19T09:04:35.401Z,39.80
2023-01-19T09:07:02.474Z,33.70
2023-01-19T09:09:29.591Z,35.70
2023-01-19T09:11:56.626Z,43.00
2023-01-19T09:14:23.687Z,37.50
2023-01-19T09:16:50.930Z,49.10
2023-01-19T09:19:17.768Z,45.10
2023-01-19T09:21:45.148Z,34.50
2023-01-19T09:24:12.189Z,40.60
2023-01-19T09:26:41.045Z,37.50
2023-01-19T09:29:08.190Z,40.10
2023-01-19T09:31:35.589Z,37.10
2023-01-19T09:34:03.119Z,42.30
2023-01-19T09:36:30.790Z,40.80
2023-01-19T09:38:57.956Z,42.50
2023-01-19T09:41:26.711Z,37.50
2023-01-19T09:44:02.857Z,39.30
2023-01-19T09:46:40.502Z,37.70
2023-01-19T09:49:21.954Z,38.90
2023-01-19T09:51:51.175Z,36.30
2023-01-19T09:54:34.513Z,39.60
2023-01-19T09:57:02.323Z,52.50
2023-01-19T09:59:31.548Z,45.70
2023-01-19T10:02:17.147Z,45.20
2023-01-19T10:04:59.600Z,13.10
2023-01-19T10:08:11.803Z,27.00
2023-01-19T10:10:42.982Z,28.70
2023-01-19T10:13:25.783Z,31.70
2023-01-19T10:16:11.414Z,33.70
2023-01-19T10:18:47.738Z,31.80
2023-01-19T10:21:33.982Z,25.80
2023-01-19T10:24:19.873Z,26.30
2023-01-19T10:26:53.164Z,28.10
2023-01-19T10:29:29.099Z,26.60
2023-01-19T10:32:11.827Z,24.20
2023-01-19T10:34:39.772Z,27.90
2023-01-19T10:37:19.032Z,29.30
2023-01-19T10:39:52.286Z,23.00
2023-01-19T10:42:19.407Z,19.30
2023-01-19T10:44:46.937Z,24.50
2023-01-19T10:47:19.634Z,24.70
2023-01-19T10:49:48.935Z,28.10
2023-01-19T10:52:40.101Z,30.20
2023-01-19T10:55:08.596Z,34.20
2023-01-19T10:57:39.223Z,31.90
2023-01-19T11:00:27.785Z,40.80
2023-01-19T11:02:55.092Z,30.90
2023-01-19T11:05:29.223Z,35.90
2023-01-19T11:07:57.247Z,32.80
2023-01-19T11:10:27.473Z,31.60
2023-01-19T11:13:02.736Z,34.10
2023-01-19T11:15:46.661Z,34.80
2023-01-19T11:18:31.980Z,34.60
2023-01-19T11:21:09.870Z,28.80
2023-01-19T11:23:46.953Z,20.40
2023-01-19T11:26:44.722Z,29.60
2023-01-19T11:29:24.435Z,28.10
2023-01-19T11:31:53.640Z,41.60
2023-01-19T11:34:34.534Z,32.70
2023-01-19T11:37:26.249Z,33.40
2023-01-19T11:39:57.363Z,28.50
2023-01-19T11:45:11.064Z,41.30
2023-01-19T11:47:50.189Z,32.40
2023-01-19T11:50:35.629Z,36.70
2023-01-19T11:53:15.384Z,35.20
2023-01-19T11:55:51.129Z,38.50
2023-01-19T11:58:19.983Z,35.00
2023-01-19T12:00:53.466Z,35.60
2023-01-19T12:03:43.839Z,29.00
2023-01-19T12:06:28.569Z,32.50
2023-01-19T12:09:01.327Z,18.40
2023-01-19T12:11:34.345Z,32.60
2023-01-19T12:14:02.542Z,29.10
2023-01-19T12:16:33.104Z,32.40
2023-01-19T12:19:05.792Z,28.20
2023-01-19T12:21:32.966Z,28.90
2023-01-19T12:24:24.961Z,42.50
2023-01-19T12:26:59.227Z,33.40
2023-01-19T12:29:31.327Z,32.50
2023-01-19T12:32:39.843Z,37.30
2023-01-19T12:35:27.917Z,30.90
2023-01-19T12:37:54.972Z,31.60
2023-01-19T12:40:27.412Z,27.30
2023-01-19T12:43:06.205Z,28.10
2023-01-19T12:45:40.268Z,28.00
2023-01-19T12:48:24.921Z,23.20
2023-01-19T12:50:52.105Z,22.80
2023-01-19T12:53:22.856Z,31.70
2023-01-19T12:56:00.525Z,26.20
2023-01-19T12:58:28.310Z,24.10
2023-01-19T13:01:16.352Z,27.50
2023-01-19T13:04:00.974Z,26.20
2023-01-19T13:06:49.782Z,28.80
2023-01-19T13:09:32.765Z,24.90
2023-01-19T13:12:21.723Z,21.50
2023-01-19T13:14:51.076Z,26.30
2023-01-19T13:17:33.572Z,33.40
2023-01-19T13:20:25.252Z,36.80
2023-01-19T13:23:14.185Z,27.50
2023-01-19T13:25:44.884Z,30.30
2023-01-19T13:28:16.620Z,29.10
2023-01-19T13:31:00.062Z,27.60
2023-01-19T13:33:32.636Z,26.20
2023-01-19T13:36:00.375Z,23.40
2023-01-19T13:38:29.740Z,25.10
2023-01-19T13:41:00.182Z,22.70
2023-01-19T13:43:33.165Z,26.30
2023-01-19T13:46:01.133Z,27.50
2023-01-19T13:48:28.908Z,27.90
2023-01-19T13:51:02.190Z,32.90
2023-01-19T13:53:30.865Z,26.40
2023-01-19T13:56:08.317Z,29.70
2023-01-19T13:58:35.679Z,27.30
2023-01-19T14:01:02.756Z,24.30
2023-01-19T14:03:30.430Z,23.30
2023-01-19T14:05:58.103Z,21.10
2023-01-19T14:08:26.274Z,22.20
2023-01-19T14:11:02.672Z,25.70
2023-01-19T14:13:35.487Z,24.10
2023-01-19T14:16:17.773Z,21.40
2023-01-19T14:18:44.982Z,26.30
2023-01-19T14:21:14.268Z,28.80
2023-01-19T14:23:47.543Z,43.70
2023-01-19T14:26:51.568Z,50.80
2023-01-19T14:29:36.168Z,42.40
2023-01-19T14:32:22.247Z,39.60
2023-01-19T14:35:14.425Z,35.60
2023-01-19T14:37:59.918Z,34.80
2023-01-19T14:40:27.333Z,34.60
2023-01-19T14:43:06.657Z,33.90
2023-01-19T14:45:47.590Z,29.60
2023-01-19T14:48:20.906Z,27.40
2023-01-19T14:51:02.688Z,33.60
2023-01-19T14:53:36.986Z,26.90
2023-01-19T14:56:05.678Z,25.00
2023-01-19T14:58:36.657Z,25.60
2023-01-19T15:01:05.393Z,23.30
2023-01-19T15:03:44.103Z,22.30
2023-01-19T15:06:18.735Z,25.50
2023-01-19T15:08:46.445Z,25.70
2023-01-19T15:11:39.038Z,20.80
2023-01-19T15:14:06.990Z,27.10
2023-01-19T15:16:35.004Z,22.70
2023-01-19T15:19:02.240Z,32.50
2023-01-19T15:21:29.242Z,21.10
2023-01-19T15:23:56.557Z,20.20
2023-01-19T15:26:25.788Z,18.00
2023-01-19T15:28:53.633Z,29.70
2023-01-19T15:31:22.642Z,26.80
2023-01-19T15:33:50.399Z,23.80
2023-01-19T15:36:20.014Z,21.00
2023-01-19T15:38:47.724Z,22.80
2023-01-19T15:41:23.508Z,20.80
2023-01-19T15:43:51.664Z,21.60
2023-01-19T15:46:23.319Z,23.90
2023-01-19T15:48:51.203Z,23.50
2023-01-19T15:51:21.764Z,25.90
2023-01-19T15:53:49.877Z,28.60
2023-01-19T15:56:19.610Z,30.60
2023-01-19T15:58:46.931Z,40.70
2023-01-19T16:01:19.519Z,34.70
2023-01-19T16:03:46.967Z,45.80
2023-01-19T16:06:16.633Z,45.70
2023-01-19T16:08:44.478Z,29.00
2023-01-19T16:11:14.724Z,25.80
2023-01-19T16:13:46.577Z,23.90
2023-01-19T16:16:19.753Z,28.30
2023-01-19T16:18:47.763Z,29.50
2023-01-19T16:21:14.966Z,26.20
2023-01-19T16:23:42.572Z,34.00
2023-01-19T16:26:23.903Z,34.70
2023-01-19T16:28:51.260Z,39.80
2023-01-19T16:31:18.392Z,44.00
2023-01-19T16:33:46.245Z,60.80
2023-01-19T16:36:32.012Z,37.30
2023-01-19T16:39:04.996Z,32.70
2023-01-19T16:41:33.836Z,31.70
2023-01-19T16:44:01.342Z,34.00
2023-01-19T16:46:32.979Z,30.30
2023-01-19T16:49:02.422Z,32.70
2023-01-19T16:51:29.739Z,32.20
2023-01-19T16:53:57.121Z,33.00
2023-01-19T16:56:25.028Z,30.30
2023-01-19T16:58:57.384Z,38.30
2023-01-19T17:01:26.397Z,29.90
2023-01-19T17:03:54.347Z,25.10
2023-01-19T17:06:25.430Z,23.90
2023-01-19T17:11:24.109Z,25.00
2023-01-19T17:13:55.603Z,30.90
2023-01-19T17:16:24.831Z,27.70
2023-01-19T17:18:53.653Z,27.60
2023-01-19T17:21:21.303Z,27.90
2023-01-19T17:23:50.495Z,26.40
2023-01-19T17:26:18.537Z,27.50
2023-01-19T17:28:46.385Z,26.80
2023-01-19T17:31:21.992Z,29.30
2023-01-19T17:33:51.038Z,36.50
2023-01-19T17:36:22.801Z,36.10
2023-01-19T17:38:51.930Z,34.70
2023-01-19T17:41:25.583Z,29.30
2023-01-19T17:43:53.180Z,29.90
2023-01-19T17:46:23.757Z,35.10
2023-01-19T17:48:56.073Z,33.80
2023-01-19T17:51:24.222Z,35.70
2023-01-19T17:53:52.716Z,37.20
2023-01-19T17:56:23.203Z,36.00
2023-01-19T17:58:50.546Z,35.50
2023-01-19T18:01:26.830Z,37.30
2023-01-19T18:03:54.895Z,36.30
2023-01-19T18:06:22.597Z,37.50
2023-01-19T18:08:50.707Z,31.10
2023-01-19T18:11:20.194Z,32.80
2023-01-19T18:13:49.233Z,32.80
2023-01-19T18:16:23.424Z,35.40
2023-01-19T18:18:53.836Z,33.80
2023-01-19T18:21:22.515Z,32.10
2023-01-19T18:23:51.221Z,34.80
2023-01-19T18:26:20.835Z,33.80
2023-01-19T18:28:49.375Z,32.00
2023-01-19T18:31:19.012Z,31.60
2023-01-19T18:33:48.072Z,32.70
2023-01-19T18:36:16.560Z,38.80
2023-01-19T18:38:44.383Z,53.40
2023-01-19T18:41:14.323Z,57.80
2023-01-19T18:43:41.643Z,56.00
2023-01-19T18:46:09.331Z,57.30
2023-01-19T18:48:38.640Z,51.10
2023-01-19T18:51:11.244Z,55.20
2023-01-19T18:53:39.443Z,53.70
2023-01-19T18:56:07.451Z,55.70
2023-01-19T18:58:37.983Z,43.90
2023-01-19T19:01:17.407Z,41.40
2023-01-19T19:03:44.830Z,41.10
2023-01-19T19:06:12.549Z,40.20
2023-01-19T19:08:40.394Z,44.50
2023-01-19T19:11:08.648Z,40.10
2023-01-19T19:13:36.318Z,44.60
2023-01-19T19:16:09.152Z,42.10
2023-01-19T19:18:38.145Z,52.40
2023-01-19T19:21:08.180Z,56.70
2023-01-19T19:23:37.048Z,48.60
2023-01-19T19:26:13.060Z,60.40
2023-01-19T19:28:41.195Z,57.60
2023-01-19T19:31:18.394Z,57.40
2023-01-19T19:33:45.513Z,52.00
2023-01-19T19:36:13.160Z,47.60
2023-01-19T19:38:44.752Z,44.10
2023-01-19T19:41:15.076Z,44.70
2023-01-19T19:43:42.421Z,45.40
2023-01-19T19:46:12.595Z,43.90
2023-01-19T19:48:40.393Z,51.50
2023-01-19T19:51:28.202Z,59.80
2023-01-19T19:53:58.927Z,68.70
2023-01-19T19:56:28.522Z,64.30
2023-01-19T19:58:57.393Z,74.20
2023-01-19T20:01:32.368Z,66.90
2023-01-19T20:04:09.086Z,64.00
2023-01-19T20:06:39.245Z,65.60
2023-01-19T20:09:09.336Z,68.30
2023-01-19T20:11:37.039Z,62.20
2023-01-19T20:14:09.908Z,59.50
2023-01-19T20:16:37.674Z,53.90
2023-01-19T20:19:05.474Z,56.60
2023-01-19T20:21:38.065Z,56.40
2023-01-19T20:24:08.631Z,54.40
2023-01-19T20:26:39.380Z,58.90
2023-01-19T20:29:07.389Z,65.30
2023-01-19T20:31:37.723Z,69.70
2023-01-19T20:34:08.436Z,62.60
2023-01-19T20:36:36.555Z,58.40
2023-01-19T20:39:08.920Z,65.60
2023-01-19T20:41:43.830Z,63.30
2023-01-19T20:44:16.752Z,56.00
2023-01-19T20:46:43.950Z,51.00
2023-01-19T20:49:11.225Z,54.90
2023-01-19T20:51:43.575Z,51.20
2023-01-19T20:54:12.620Z,53.70
2023-01-19T20:56:41.580Z,54.00
2023-01-19T20:59:10.549Z,57.30
2023-01-19T21:01:39.204Z,54.50
2023-01-19T21:04:06.914Z,59.20
2023-01-19T21:06:35.083Z,57.60
2023-01-19T21:09:02.587Z,60.30
2023-01-19T21:11:29.948Z,51.30
2023-01-19T21:13:57.556Z,49.20
2023-01-19T21:16:30.161Z,48.50
2023-01-19T21:18:57.460Z,52.00
2023-01-19T21:21:30.740Z,48.00
2023-01-19T21:23:59.995Z,46.50
2023-01-19T21:26:30.051Z,49.00
2023-01-19T21:28:58.559Z,48.70
2023-01-19T21:31:27.808Z,50.80
2023-01-19T21:33:56.444Z,58.40
2023-01-19T21:36:25.080Z,56.70
2023-01-19T21:38:52.696Z,59.90
2023-01-19T21:41:20.569Z,58.50
2023-01-19T21:43:47.913Z,56.90
2023-01-19T21:46:19.876Z,50.70
2023-01-19T21:48:47.342Z,58.20
2023-01-19T21:51:15.556Z,58.40
2023-01-19T21:53:43.076Z,49.70
2023-01-19T21:56:11.178Z,48.40
2023-01-19T21:58:38.907Z,51.80
2023-01-19T22:01:11.089Z,78.10
2023-01-19T22:03:38.761Z,99.20
2023-01-19T22:06:08.912Z,112.20
2023-01-19T22:08:37.096Z,91.70
2023-01-19T22:11:10.023Z,92.80
2023-01-19T22:13:41.144Z,89.30
2023-01-19T22:18:41.777Z,83.80
2023-01-19T22:21:14.580Z,58.70
2023-01-19T22:23:43.179Z,65.80
2023-01-19T22:26:11.989Z,51.60
2023-01-19T22:28:39.945Z,55.80
2023-01-19T22:31:09.139Z,57.20
2023-01-19T22:33:36.597Z,105.40
2023-01-19T22:36:13.836Z,88.00
2023-01-19T22:38:42.174Z,94.10
2023-01-19T22:41:43.391Z,74.80
2023-01-19T22:46:45.143Z,79.60
2023-01-19T22:49:15.370Z,101.90
2023-01-19T22:51:43.969Z,91.00
2023-01-19T22:54:12.008Z,76.00
2023-01-19T22:56:40.678Z,62.80
2023-01-19T22:59:08.434Z,53.80
2023-01-19T23:01:38.600Z,57.10
2023-01-19T23:04:07.268Z,49.40
2023-01-19T23:10:24.924Z,63.10
2023-01-19T23:12:52.699Z,62.30
2023-01-19T23:15:19.981Z,77.40
2023-01-19T23:17:49.309Z,65.70
2023-01-19T23:20:17.299Z,91.50
2023-01-19T23:22:44.636Z,68.10
2023-01-19T23:25:12.432Z,107.40
2023-01-19T23:27:39.616Z,168.70
2023-01-19T23:30:08.269Z,386.40
2023-01-19T23:32:35.349Z,173.00
2023-01-19T23:35:02.587Z,102.50
2023-01-19T23:37:29.669Z,115.60
2023-01-19T23:39:56.577Z,76.50
2023-01-19T23:42:23.872Z,69.20
2023-01-19T23:44:50.873Z,69.80
2023-01-19T23:47:17.751Z,82.20
2023-01-19T23:49:44.803Z,93.90
2023-01-19T23:52:11.806Z,93.30
2023-01-19T23:54:38.995Z,81.40
2023-01-19T23:57:05.893Z,94.50
2023-01-19T23:59:32.948Z,100.40
